sensor_id;sensor_type;location;lat;lon;timestamp;pressure;altitude;pressure_sealevel;temperature;humidity
61742;BME280;47650;49.848;9.620;2023-08-21T00:01:48;100112.91;;;23.74;76.27
61742;BME280;47650;49.848;9.620;2023-08-21T00:04:13;100083.03;;;23.56;76.75
61742;BME280;47650;49.848;9.620;2023-08-21T00:06:38;100103.38;;;23.65;76.56
61742;BME280;47650;49.848;9.620;2023-08-21T00:09:04;100111.06;;;23.68;76.72
61742;BME280;47650;49.848;9.620;2023-08-21T00:11:30;100115.88;;;23.66;77.92
61742;BME280;47650;49.848;9.620;2023-08-21T00:13:56;100117.38;;;23.62;77.96
61742;BME280;47650;49.848;9.620;2023-08-21T00:16:21;100093.34;;;23.40;77.96
61742;BME280;47650;49.848;9.620;2023-08-21T00:18:47;100075.75;;;23.24;77.33
61742;BME280;47650;49.848;9.620;2023-08-21T00:21:13;100058.13;;;23.15;77.66
61742;BME280;47650;49.848;9.620;2023-08-21T00:23:39;100119.78;;;23.38;80.22
61742;BME280;47650;49.848;9.620;2023-08-21T00:26:04;100117.25;;;23.43;79.57
61742;BME280;47650;49.848;9.620;2023-08-21T00:28:30;100091.34;;;23.29;78.63
61742;BME280;47650;49.848;9.620;2023-08-21T00:31:06;100116.66;;;23.41;78.85
61742;BME280;47650;49.848;9.620;2023-08-21T00:33:32;100102.09;;;23.36;78.71
61742;BME280;47650;49.848;9.620;2023-08-21T00:35:59;100064.19;;;23.11;79.08
61742;BME280;47650;49.848;9.620;2023-08-21T00:38:26;100101.72;;;23.32;79.12
61742;BME280;47650;49.848;9.620;2023-08-21T00:40:51;100108.75;;;23.40;79.45
61742;BME280;47650;49.848;9.620;2023-08-21T00:43:17;100116.25;;;23.38;79.62
61742;BME280;47650;49.848;9.620;2023-08-21T00:45:46;100114.81;;;23.35;79.54
61742;BME280;47650;49.848;9.620;2023-08-21T00:48:15;100100.31;;;23.23;79.65
61742;BME280;47650;49.848;9.620;2023-08-21T00:50:41;100111.91;;;23.30;79.21
61742;BME280;47650;49.848;9.620;2023-08-21T00:53:08;100086.19;;;23.21;79.18
61742;BME280;47650;49.848;9.620;2023-08-21T00:55:33;100101.97;;;23.24;79.28
61742;BME280;47650;49.848;9.620;2023-08-21T00:58:06;100100.91;;;23.25;79.07
61742;BME280;47650;49.848;9.620;2023-08-21T01:00:35;100111.94;;;23.23;79.10
61742;BME280;47650;49.848;9.620;2023-08-21T01:03:00;100054.50;;;22.83;79.16
61742;BME280;47650;49.848;9.620;2023-08-21T01:05:27;100105.75;;;23.16;79.58
61742;BME280;47650;49.848;9.620;2023-08-21T01:08:09;100098.91;;;23.14;79.08
61742;BME280;47650;49.848;9.620;2023-08-21T01:15:54;100111.63;;;23.06;79.07
61742;BME280;47650;49.848;9.620;2023-08-21T01:18:21;100109.97;;;23.05;79.29
61742;BME280;47650;49.848;9.620;2023-08-21T01:20:48;100102.88;;;22.98;79.54
61742;BME280;47650;49.848;9.620;2023-08-21T01:23:29;100104.59;;;22.92;79.81
61742;BME280;47650;49.848;9.620;2023-08-21T01:25:55;100112.06;;;22.97;80.04
61742;BME280;47650;49.848;9.620;2023-08-21T01:28:20;100122.06;;;22.96;79.45
61742;BME280;47650;49.848;9.620;2023-08-21T01:30:51;100115.41;;;22.92;79.68
61742;BME280;47650;49.848;9.620;2023-08-21T01:33:19;100058.97;;;22.57;80.02
61742;BME280;47650;49.848;9.620;2023-08-21T01:35:45;100122.72;;;22.85;80.03
61742;BME280;47650;49.848;9.620;2023-08-21T01:38:10;100115.03;;;22.82;80.29
61742;BME280;47650;49.848;9.620;2023-08-21T01:40:36;100104.28;;;22.68;80.36
61742;BME280;47650;49.848;9.620;2023-08-21T01:43:02;100109.22;;;22.71;80.09
61742;BME280;47650;49.848;9.620;2023-08-21T01:45:29;100109.22;;;22.71;80.50
61742;BME280;47650;49.848;9.620;2023-08-21T01:47:54;100112.34;;;22.75;80.69
61742;BME280;47650;49.848;9.620;2023-08-21T01:50:26;100099.50;;;22.64;80.82
61742;BME280;47650;49.848;9.620;2023-08-21T01:52:52;100061.50;;;22.39;80.27
61742;BME280;47650;49.848;9.620;2023-08-21T01:55:18;100112.38;;;22.68;80.46
61742;BME280;47650;49.848;9.620;2023-08-21T01:57:43;100122.56;;;22.66;80.91
61742;BME280;47650;49.848;9.620;2023-08-21T02:00:10;100117.59;;;22.63;81.17
61742;BME280;47650;49.848;9.620;2023-08-21T02:02:37;100120.50;;;22.62;81.06
61742;BME280;47650;49.848;9.620;2023-08-21T02:05:04;100130.47;;;22.61;80.83
61742;BME280;47650;49.848;9.620;2023-08-21T02:07:29;100117.41;;;22.58;80.72
61742;BME280;47650;49.848;9.620;2023-08-21T02:09:54;100105.34;;;22.47;80.58
61742;BME280;47650;49.848;9.620;2023-08-21T02:12:20;100116.75;;;22.56;80.15
61742;BME280;47650;49.848;9.620;2023-08-21T02:14:46;100117.63;;;22.50;80.93
61742;BME280;47650;49.848;9.620;2023-08-21T02:17:11;100096.03;;;22.37;80.59
61742;BME280;47650;49.848;9.620;2023-08-21T02:19:36;100126.34;;;22.52;80.74
61742;BME280;47650;49.848;9.620;2023-08-21T02:22:02;100093.53;;;22.28;80.38
61742;BME280;47650;49.848;9.620;2023-08-21T02:24:27;100120.53;;;22.42;80.67
61742;BME280;47650;49.848;9.620;2023-08-21T02:26:53;100115.13;;;22.35;80.64
61742;BME280;47650;49.848;9.620;2023-08-21T02:29:18;100122.00;;;22.38;81.12
61742;BME280;47650;49.848;9.620;2023-08-21T02:31:49;100123.84;;;22.37;81.22
61742;BME280;47650;49.848;9.620;2023-08-21T02:34:20;100112.44;;;22.35;81.73
61742;BME280;47650;49.848;9.620;2023-08-21T02:36:45;100118.03;;;22.33;81.59
61742;BME280;47650;49.848;9.620;2023-08-21T02:39:19;100116.59;;;22.31;80.98
61742;BME280;47650;49.848;9.620;2023-08-21T02:41:45;100124.09;;;22.29;81.24
61742;BME280;47650;49.848;9.620;2023-08-21T02:44:10;100116.59;;;22.24;81.03
61742;BME280;47650;49.848;9.620;2023-08-21T02:46:36;100120.50;;;22.22;81.65
61742;BME280;47650;49.848;9.620;2023-08-21T02:49:02;100126.78;;;22.22;81.52
61742;BME280;47650;49.848;9.620;2023-08-21T02:51:27;100132.78;;;22.17;80.83
61742;BME280;47650;49.848;9.620;2023-08-21T02:53:54;100124.69;;;22.11;81.09
61742;BME280;47650;49.848;9.620;2023-08-21T02:56:28;100131.75;;;22.05;81.64
61742;BME280;47650;49.848;9.620;2023-08-21T02:58:55;100136.34;;;22.05;81.39
61742;BME280;47650;49.848;9.620;2023-08-21T03:01:25;100137.78;;;22.01;81.92
61742;BME280;47650;49.848;9.620;2023-08-21T03:03:52;100130.09;;;21.97;81.95
61742;BME280;47650;49.848;9.620;2023-08-21T03:06:18;100126.34;;;21.98;82.10
61742;BME280;47650;49.848;9.620;2023-08-21T03:08:43;100122.84;;;21.98;82.36
61742;BME280;47650;49.848;9.620;2023-08-21T03:11:09;100104.75;;;21.85;82.32
61742;BME280;47650;49.848;9.620;2023-08-21T03:13:34;100133.00;;;21.96;82.31
61742;BME280;47650;49.848;9.620;2023-08-21T03:16:02;100128.84;;;21.93;81.88
61742;BME280;47650;49.848;9.620;2023-08-21T03:18:31;100126.16;;;21.93;82.01
61742;BME280;47650;49.848;9.620;2023-08-21T03:20:57;100120.94;;;21.85;82.16
61742;BME280;47650;49.848;9.620;2023-08-21T03:23:23;100132.38;;;21.87;81.90
61742;BME280;47650;49.848;9.620;2023-08-21T03:25:52;100127.59;;;21.83;82.12
61742;BME280;47650;49.848;9.620;2023-08-21T03:28:17;100133.81;;;21.83;81.75
61742;BME280;47650;49.848;9.620;2023-08-21T03:30:47;100128.63;;;21.82;82.40
61742;BME280;47650;49.848;9.620;2023-08-21T03:33:12;100124.88;;;21.76;82.76
61742;BME280;47650;49.848;9.620;2023-08-21T03:35:38;100123.44;;;21.80;82.66
61742;BME280;47650;49.848;9.620;2023-08-21T03:38:05;100126.34;;;21.78;82.62
61742;BME280;47650;49.848;9.620;2023-08-21T03:40:30;100097.66;;;21.57;82.67
61742;BME280;47650;49.848;9.620;2023-08-21T03:42:56;100125.91;;;21.75;82.78
61742;BME280;47650;49.848;9.620;2023-08-21T03:45:23;100128.84;;;21.73;82.90
61742;BME280;47650;49.848;9.620;2023-08-21T03:47:49;100130.06;;;21.71;82.51
61742;BME280;47650;49.848;9.620;2023-08-21T03:50:16;100120.13;;;21.65;83.19
61742;BME280;47650;49.848;9.620;2023-08-21T03:52:42;100126.75;;;21.69;82.89
61742;BME280;47650;49.848;9.620;2023-08-21T03:55:08;100133.38;;;21.66;82.50
61742;BME280;47650;49.848;9.620;2023-08-21T03:57:34;100136.72;;;21.62;83.28
61742;BME280;47650;49.848;9.620;2023-08-21T03:59:59;100136.72;;;21.62;83.04
61742;BME280;47650;49.848;9.620;2023-08-21T04:02:24;100120.84;;;21.45;82.76
61742;BME280;47650;49.848;9.620;2023-08-21T04:04:51;100115.44;;;21.38;83.53
61742;BME280;47650;49.848;9.620;2023-08-21T04:07:17;100140.00;;;21.50;83.47
61742;BME280;47650;49.848;9.620;2023-08-21T04:09:43;100117.09;;;21.33;83.06
61742;BME280;47650;49.848;9.620;2023-08-21T04:12:09;100140.78;;;21.44;83.37
61742;BME280;47650;49.848;9.620;2023-08-21T04:14:41;100142.63;;;21.44;83.70
61742;BME280;47650;49.848;9.620;2023-08-21T04:17:08;100126.25;;;21.32;83.44
61742;BME280;47650;49.848;9.620;2023-08-21T04:19:35;100136.19;;;21.38;83.50
61742;BME280;47650;49.848;9.620;2023-08-21T04:22:00;100082.19;;;21.04;83.84
61742;BME280;47650;49.848;9.620;2023-08-21T04:24:25;100143.50;;;21.44;83.48
61742;BME280;47650;49.848;9.620;2023-08-21T04:26:58;100140.56;;;21.39;83.32
61742;BME280;47650;49.848;9.620;2023-08-21T04:29:24;100149.09;;;21.42;83.09
61742;BME280;47650;49.848;9.620;2023-08-21T04:31:49;100139.09;;;21.36;82.33
61742;BME280;47650;49.848;9.620;2023-08-21T04:34:16;100127.88;;;21.33;82.33
61742;BME280;47650;49.848;9.620;2023-08-21T04:36:43;100150.53;;;21.45;82.88
61742;BME280;47650;49.848;9.620;2023-08-21T04:39:08;100142.84;;;21.42;82.78
61742;BME280;47650;49.848;9.620;2023-08-21T04:41:34;100152.84;;;21.48;83.05
61742;BME280;47650;49.848;9.620;2023-08-21T04:44:00;100151.41;;;21.52;83.28
61742;BME280;47650;49.848;9.620;2023-08-21T04:46:27;100104.22;;;21.21;83.28
61742;BME280;47650;49.848;9.620;2023-08-21T04:48:52;100153.69;;;21.55;83.00
61742;BME280;47650;49.848;9.620;2023-08-21T04:51:17;100154.31;;;21.57;83.32
61742;BME280;47650;49.848;9.620;2023-08-21T04:53:46;100149.97;;;21.56;82.75
61742;BME280;47650;49.848;9.620;2023-08-21T04:56:11;100141.47;;;21.53;82.46
61742;BME280;47650;49.848;9.620;2023-08-21T04:58:36;100101.75;;;21.27;82.16
61742;BME280;47650;49.848;9.620;2023-08-21T05:01:06;100145.44;;;21.64;81.49
61742;BME280;47650;49.848;9.620;2023-08-21T05:03:31;100164.97;;;21.79;81.75
61742;BME280;47650;49.848;9.620;2023-08-21T05:05:59;100166.22;;;21.83;81.78
61742;BME280;47650;49.848;9.620;2023-08-21T05:08:26;100095.97;;;21.43;81.55
61742;BME280;47650;49.848;9.620;2023-08-21T05:10:58;100168.31;;;21.94;81.26
61742;BME280;47650;49.848;9.620;2023-08-21T05:13:27;100171.84;;;22.02;80.85
61742;BME280;47650;49.848;9.620;2023-08-21T05:15:54;100168.09;;;22.09;80.93
61742;BME280;47650;49.848;9.620;2023-08-21T05:18:21;100166.66;;;22.13;81.03
61742;BME280;47650;49.848;9.620;2023-08-21T05:20:47;100123.84;;;21.90;81.16
61742;BME280;47650;49.848;9.620;2023-08-21T05:23:14;100168.50;;;22.26;80.56
61742;BME280;47650;49.848;9.620;2023-08-21T05:25:39;100172.47;;;22.17;80.97
61742;BME280;47650;49.848;9.620;2023-08-21T05:28:05;100163.34;;;22.31;81.07
61742;BME280;47650;49.848;9.620;2023-08-21T05:30:32;100166.88;;;22.39;81.08
61742;BME280;47650;49.848;9.620;2023-08-21T05:32:59;100146.72;;;22.34;80.27
61742;BME280;47650;49.848;9.620;2023-08-21T05:35:24;100165.41;;;22.56;79.67
61742;BME280;47650;49.848;9.620;2023-08-21T05:37:52;100117.63;;;22.37;80.14
61742;BME280;47650;49.848;9.620;2023-08-21T05:40:19;100150.63;;;22.65;80.04
61742;BME280;47650;49.848;9.620;2023-08-21T05:42:45;100099.13;;;22.47;79.71
61742;BME280;47650;49.848;9.620;2023-08-21T05:45:16;100168.22;;;22.95;79.08
61742;BME280;47650;49.848;9.620;2023-08-21T05:47:41;100162.34;;;23.04;79.09
61742;BME280;47650;49.848;9.620;2023-08-21T05:50:08;100142.63;;;22.97;77.99
61742;BME280;47650;49.848;9.620;2023-08-21T05:52:33;100150.72;;;23.04;78.44
61742;BME280;47650;49.848;9.620;2023-08-21T05:55:01;100162.72;;;23.28;78.91
61742;BME280;47650;49.848;9.620;2023-08-21T05:57:27;100163.91;;;23.39;77.82
61742;BME280;47650;49.848;9.620;2023-08-21T05:59:54;100134.63;;;23.29;77.08
61742;BME280;47650;49.848;9.620;2023-08-21T06:02:19;100138.91;;;23.43;76.94
61742;BME280;47650;49.848;9.620;2023-08-21T06:04:47;100162.50;;;23.68;76.46
61742;BME280;47650;49.848;9.620;2023-08-21T06:07:13;100174.47;;;23.86;76.19
61742;BME280;47650;49.848;9.620;2023-08-21T06:09:39;100178.13;;;23.98;75.42
61742;BME280;47650;49.848;9.620;2023-08-21T06:12:07;100176.63;;;24.09;74.50
61742;BME280;47650;49.848;9.620;2023-08-21T06:14:33;100177.19;;;24.17;74.59
61742;BME280;47650;49.848;9.620;2023-08-21T06:17:04;100173.91;;;24.34;73.49
61742;BME280;47650;49.848;9.620;2023-08-21T06:19:33;100179.16;;;24.29;73.50
61742;BME280;47650;49.848;9.620;2023-08-21T06:21:58;100181.09;;;24.47;73.64
61742;BME280;47650;49.848;9.620;2023-08-21T06:24:24;100186.06;;;24.25;74.90
61742;BME280;47650;49.848;9.620;2023-08-21T06:26:51;100179.59;;;24.51;74.32
61742;BME280;47650;49.848;9.620;2023-08-21T06:29:16;100149.41;;;24.22;74.12
61742;BME280;47650;49.848;9.620;2023-08-21T06:31:42;100188.50;;;24.33;74.21
61742;BME280;47650;49.848;9.620;2023-08-21T06:34:07;100187.13;;;24.49;73.49
61742;BME280;47650;49.848;9.620;2023-08-21T06:36:34;100187.81;;;24.37;75.18
61742;BME280;47650;49.848;9.620;2023-08-21T06:38:59;100170.31;;;24.40;75.37
61742;BME280;47650;49.848;9.620;2023-08-21T06:41:25;100181.81;;;24.61;73.51
61742;BME280;47650;49.848;9.620;2023-08-21T06:43:51;100170.97;;;24.61;74.04
61742;BME280;47650;49.848;9.620;2023-08-21T06:46:16;100189.59;;;24.75;73.14
61742;BME280;47650;49.848;9.620;2023-08-21T06:48:44;100180.47;;;25.07;71.50
61742;BME280;47650;49.848;9.620;2023-08-21T06:51:10;100163.75;;;25.10;71.78
61742;BME280;47650;49.848;9.620;2023-08-21T06:53:36;100175.50;;;25.41;70.72
61742;BME280;47650;49.848;9.620;2023-08-21T06:56:08;100149.66;;;25.50;69.88
61742;BME280;47650;49.848;9.620;2023-08-21T06:58:35;100177.59;;;25.99;68.27
61742;BME280;47650;49.848;9.620;2023-08-21T07:01:01;100106.38;;;25.55;67.48
61742;BME280;47650;49.848;9.620;2023-08-21T07:03:28;100185.44;;;26.31;66.58
61742;BME280;47650;49.848;9.620;2023-08-21T07:05:55;100156.72;;;26.35;66.01
61742;BME280;47650;49.848;9.620;2023-08-21T07:08:25;100131.19;;;26.36;65.90
61742;BME280;47650;49.848;9.620;2023-08-21T07:10:51;100173.25;;;26.93;64.35
61742;BME280;47650;49.848;9.620;2023-08-21T07:13:17;100129.28;;;26.60;64.86
61742;BME280;47650;49.848;9.620;2023-08-21T07:15:43;100147.00;;;26.16;67.17
61742;BME280;47650;49.848;9.620;2023-08-21T07:18:08;100177.25;;;26.19;68.17
61742;BME280;47650;49.848;9.620;2023-08-21T07:20:39;100162.38;;;25.80;69.46
61742;BME280;47650;49.848;9.620;2023-08-21T07:23:06;100165.56;;;26.19;69.25
61742;BME280;47650;49.848;9.620;2023-08-21T07:25:32;100154.00;;;26.23;68.18
61742;BME280;47650;49.848;9.620;2023-08-21T07:27:58;100171.50;;;26.27;68.16
61742;BME280;47650;49.848;9.620;2023-08-21T07:30:24;100171.13;;;26.83;66.55
61742;BME280;47650;49.848;9.620;2023-08-21T07:32:52;100169.84;;;26.86;65.96
61742;BME280;47650;49.848;9.620;2023-08-21T07:35:18;100176.22;;;26.79;66.05
61742;BME280;47650;49.848;9.620;2023-08-21T07:37:45;100167.94;;;26.98;65.67
61742;BME280;47650;49.848;9.620;2023-08-21T07:40:10;100169.94;;;27.43;64.48
61742;BME280;47650;49.848;9.620;2023-08-21T07:42:36;100163.59;;;27.54;63.52
61742;BME280;47650;49.848;9.620;2023-08-21T07:45:01;100168.13;;;27.77;62.65
61742;BME280;47650;49.848;9.620;2023-08-21T07:47:27;100162.22;;;28.14;61.35
61742;BME280;47650;49.848;9.620;2023-08-21T07:49:53;100166.75;;;28.26;60.74
61742;BME280;47650;49.848;9.620;2023-08-21T07:52:20;100165.44;;;27.94;62.09
61742;BME280;47650;49.848;9.620;2023-08-21T07:54:45;100160.63;;;28.36;60.60
61742;BME280;47650;49.848;9.620;2023-08-21T07:57:15;100169.56;;;27.51;63.25
61742;BME280;47650;49.848;9.620;2023-08-21T07:59:41;100163.63;;;28.17;61.19
61742;BME280;47650;49.848;9.620;2023-08-21T08:02:06;100174.03;;;27.29;64.95
61742;BME280;47650;49.848;9.620;2023-08-21T08:04:32;100156.66;;;27.92;63.43
61742;BME280;47650;49.848;9.620;2023-08-21T08:06:58;100159.16;;;28.45;60.70
61742;BME280;47650;49.848;9.620;2023-08-21T08:09:24;100161.75;;;28.74;60.39
61742;BME280;47650;49.848;9.620;2023-08-21T08:11:49;100170.50;;;27.91;62.32
61742;BME280;47650;49.848;9.620;2023-08-21T08:14:14;100158.94;;;28.68;59.98
61742;BME280;47650;49.848;9.620;2023-08-21T08:16:46;100162.75;;;29.12;58.89
61742;BME280;47650;49.848;9.620;2023-08-21T08:19:12;100160.38;;;28.93;59.30
61742;BME280;47650;49.848;9.620;2023-08-21T08:21:38;100149.06;;;28.62;59.50
61742;BME280;47650;49.848;9.620;2023-08-21T08:24:04;100153.06;;;28.77;59.59
61742;BME280;47650;49.848;9.620;2023-08-21T08:26:30;100077.16;;;28.96;57.63
61742;BME280;47650;49.848;9.620;2023-08-21T08:28:56;100151.41;;;29.42;56.48
61742;BME280;47650;49.848;9.620;2023-08-21T08:31:22;100144.84;;;29.70;56.04
61742;BME280;47650;49.848;9.620;2023-08-21T08:33:50;100150.94;;;29.77;55.78
61742;BME280;47650;49.848;9.620;2023-08-21T08:36:16;100150.06;;;29.44;57.13
61742;BME280;47650;49.848;9.620;2023-08-21T08:38:50;100126.16;;;30.22;54.38
61742;BME280;47650;49.848;9.620;2023-08-21T08:44:01;100138.66;;;30.98;52.46
61742;BME280;47650;49.848;9.620;2023-08-21T08:46:29;100021.19;;;30.96;49.33
61742;BME280;47650;49.848;9.620;2023-08-21T08:48:56;100136.31;;;32.45;47.88
61742;BME280;47650;49.848;9.620;2023-08-21T08:51:24;100135.00;;;31.81;48.31
61742;BME280;47650;49.848;9.620;2023-08-21T08:53:50;100131.13;;;32.43;46.58
61742;BME280;47650;49.848;9.620;2023-08-21T08:56:16;100120.91;;;33.75;43.70
61742;BME280;47650;49.848;9.620;2023-08-21T08:58:41;100098.28;;;33.43;43.00
61742;BME280;47650;49.848;9.620;2023-08-21T09:01:09;100123.28;;;33.86;42.59
61742;BME280;47650;49.848;9.620;2023-08-21T09:03:36;100107.28;;;34.23;41.80
61742;BME280;47650;49.848;9.620;2023-08-21T09:06:03;100109.16;;;36.50;37.75
61742;BME280;47650;49.848;9.620;2023-08-21T09:08:29;100107.19;;;38.51;34.67
61742;BME280;47650;49.848;9.620;2023-08-21T09:10:54;100093.75;;;37.14;35.78
61742;BME280;47650;49.848;9.620;2023-08-21T09:13:23;100099.34;;;39.19;32.08
61742;BME280;47650;49.848;9.620;2023-08-21T09:15:55;100094.91;;;39.79;31.06
61742;BME280;47650;49.848;9.620;2023-08-21T09:18:23;100097.91;;;38.55;32.22
61742;BME280;47650;49.848;9.620;2023-08-21T09:20:48;100079.72;;;42.75;26.85
61742;BME280;47650;49.848;9.620;2023-08-21T09:23:15;100072.97;;;44.88;24.17
61742;BME280;47650;49.848;9.620;2023-08-21T09:25:46;100068.78;;;46.80;22.18
61742;BME280;47650;49.848;9.620;2023-08-21T09:28:20;100060.09;;;47.56;20.33
61742;BME280;47650;49.848;9.620;2023-08-21T09:30:51;100060.63;;;48.14;19.96
61742;BME280;47650;49.848;9.620;2023-08-21T09:33:18;100060.50;;;49.54;19.29
61742;BME280;47650;49.848;9.620;2023-08-21T09:35:44;100058.78;;;49.09;18.55
61742;BME280;47650;49.848;9.620;2023-08-21T09:38:10;100056.50;;;49.69;17.98
61742;BME280;47650;49.848;9.620;2023-08-21T09:40:39;100058.53;;;50.15;16.78
61742;BME280;47650;49.848;9.620;2023-08-21T09:43:06;100062.50;;;50.47;17.36
61742;BME280;47650;49.848;9.620;2023-08-21T09:45:35;100060.53;;;50.08;16.85
61742;BME280;47650;49.848;9.620;2023-08-21T09:48:03;100052.72;;;50.87;16.04
61742;BME280;47650;49.848;9.620;2023-08-21T09:50:33;100053.56;;;51.58;15.07
61742;BME280;47650;49.848;9.620;2023-08-21T09:52:59;100040.06;;;51.24;15.07
61742;BME280;47650;49.848;9.620;2023-08-21T09:55:27;100017.84;;;49.69;16.27
61742;BME280;47650;49.848;9.620;2023-08-21T09:57:58;100055.63;;;47.14;18.96
61742;BME280;47650;49.848;9.620;2023-08-21T10:00:32;100027.59;;;47.18;18.90
61742;BME280;47650;49.848;9.620;2023-08-21T10:03:06;100047.47;;;47.39;17.85
61742;BME280;47650;49.848;9.620;2023-08-21T10:05:33;100064.97;;;45.46;19.94
61742;BME280;47650;49.848;9.620;2023-08-21T10:08:01;100054.56;;;40.38;24.95
61742;BME280;47650;49.848;9.620;2023-08-21T10:10:36;100054.56;;;44.52;21.34
61742;BME280;47650;49.848;9.620;2023-08-21T10:13:03;100045.13;;;47.45;18.00
61742;BME280;47650;49.848;9.620;2023-08-21T10:15:30;100033.72;;;48.83;16.83
61742;BME280;47650;49.848;9.620;2023-08-21T10:20:43;62682.47;;;-146.85;100.00
61742;BME280;47650;49.848;9.620;2023-08-21T10:23:30;62682.47;;;-146.85;100.00
61742;BME280;47650;49.848;9.620;2023-08-21T10:26:01;62682.47;;;-146.85;100.00
61742;BME280;47650;49.848;9.620;2023-08-21T10:28:51;100049.78;;;44.17;19.58
61742;BME280;47650;49.848;9.620;2023-08-21T10:31:34;100033.06;;;47.07;17.66
61742;BME280;47650;49.848;9.620;2023-08-21T10:34:08;100036.88;;;44.28;19.81
61742;BME280;47650;49.848;9.620;2023-08-21T10:39:03;100023.94;;;48.55;16.42
61742;BME280;47650;49.848;9.620;2023-08-21T10:41:30;100012.88;;;50.71;14.82
61742;BME280;47650;49.848;9.620;2023-08-21T10:43:56;100023.09;;;49.64;15.33
61742;BME280;47650;49.848;9.620;2023-08-21T10:46:21;99997.41;;;51.60;14.12
61742;BME280;47650;49.848;9.620;2023-08-21T10:48:46;100017.50;;;52.87;13.21
61742;BME280;47650;49.848;9.620;2023-08-21T10:51:19;100025.84;;;48.36;15.94
61742;BME280;47650;49.848;9.620;2023-08-21T10:53:45;100025.38;;;46.70;17.64
61742;BME280;47650;49.848;9.620;2023-08-21T10:56:11;100029.78;;;44.50;19.45
61742;BME280;47650;49.848;9.620;2023-08-21T10:58:43;100015.28;;;48.89;15.56
61742;BME280;47650;49.848;9.620;2023-08-21T11:01:14;100000.94;;;49.69;15.82
61742;BME280;47650;49.848;9.620;2023-08-21T11:03:40;100012.47;;;48.89;15.57
61742;BME280;47650;49.848;9.620;2023-08-21T11:06:07;100017.06;;;49.65;15.14
61742;BME280;47650;49.848;9.620;2023-08-21T11:08:34;100024.38;;;47.16;17.22
61742;BME280;47650;49.848;9.620;2023-08-21T11:11:02;100025.25;;;43.94;19.64
61742;BME280;47650;49.848;9.620;2023-08-21T11:13:28;99981.56;;;44.18;18.45
61742;BME280;47650;49.848;9.620;2023-08-21T11:16:04;100023.53;;;46.24;17.20
61742;BME280;47650;49.848;9.620;2023-08-21T11:18:36;100008.41;;;48.79;15.45
61742;BME280;47650;49.848;9.620;2023-08-21T11:21:10;99979.63;;;51.07;13.74
61742;BME280;47650;49.848;9.620;2023-08-21T11:23:37;99943.69;;;53.01;12.94
61742;BME280;47650;49.848;9.620;2023-08-21T11:26:05;100000.28;;;51.57;13.53
61742;BME280;47650;49.848;9.620;2023-08-21T11:28:31;100014.34;;;46.01;17.24
61742;BME280;47650;49.848;9.620;2023-08-21T11:30:57;99999.34;;;49.50;14.70
61742;BME280;47650;49.848;9.620;2023-08-21T11:33:24;100007.78;;;49.79;14.97
61742;BME280;47650;49.848;9.620;2023-08-21T11:35:50;100011.31;;;47.75;16.40
61742;BME280;47650;49.848;9.620;2023-08-21T11:38:20;100019.53;;;47.98;15.62
61742;BME280;47650;49.848;9.620;2023-08-21T11:41:02;100015.09;;;48.49;15.00
61742;BME280;47650;49.848;9.620;2023-08-21T11:43:38;100003.91;;;51.53;12.83
61742;BME280;47650;49.848;9.620;2023-08-21T11:46:08;100006.56;;;49.73;14.61
61742;BME280;47650;49.848;9.620;2023-08-21T11:48:37;99998.84;;;52.24;12.72
61742;BME280;47650;49.848;9.620;2023-08-21T11:51:02;99991.22;;;52.56;13.02
61742;BME280;47650;49.848;9.620;2023-08-21T11:53:38;99965.00;;;53.84;12.14
61742;BME280;47650;49.848;9.620;2023-08-21T11:56:15;100009.91;;;45.11;19.44
61742;BME280;47650;49.848;9.620;2023-08-21T11:58:51;100018.31;;;46.23;18.22
61742;BME280;47650;49.848;9.620;2023-08-21T12:01:18;99985.28;;;45.20;19.82
61742;BME280;47650;49.848;9.620;2023-08-21T12:03:45;100023.06;;;41.72;23.35
61742;BME280;47650;49.848;9.620;2023-08-21T12:06:11;99999.09;;;42.70;22.01
61742;BME280;47650;49.848;9.620;2023-08-21T12:08:40;100012.09;;;41.01;23.74
61742;BME280;47650;49.848;9.620;2023-08-21T12:11:07;100010.41;;;43.30;20.85
61742;BME280;47650;49.848;9.620;2023-08-21T12:13:33;100005.09;;;47.55;17.23
61742;BME280;47650;49.848;9.620;2023-08-21T12:15:58;99959.09;;;49.32;14.80
61742;BME280;47650;49.848;9.620;2023-08-21T12:18:24;99996.44;;;51.78;13.50
61742;BME280;47650;49.848;9.620;2023-08-21T12:20:49;99982.00;;;45.57;17.15
61742;BME280;47650;49.848;9.620;2023-08-21T12:23:14;99961.97;;;44.02;18.75
61742;BME280;47650;49.848;9.620;2023-08-21T12:25:40;99993.50;;;44.35;19.59
61742;BME280;47650;49.848;9.620;2023-08-21T12:28:07;100002.59;;;43.36;19.88
61742;BME280;47650;49.848;9.620;2023-08-21T12:30:33;100000.03;;;43.31;20.11
61742;BME280;47650;49.848;9.620;2023-08-21T12:32:58;100003.34;;;43.49;21.05
61742;BME280;47650;49.848;9.620;2023-08-21T12:35:24;99999.78;;;43.80;19.92
61742;BME280;47650;49.848;9.620;2023-08-21T12:37:49;100005.03;;;43.53;20.42
61742;BME280;47650;49.848;9.620;2023-08-21T12:40:14;99999.50;;;43.85;19.79
61742;BME280;47650;49.848;9.620;2023-08-21T12:42:39;99959.97;;;44.93;18.43
61742;BME280;47650;49.848;9.620;2023-08-21T12:45:07;99968.56;;;48.00;16.68
61742;BME280;47650;49.848;9.620;2023-08-21T12:47:32;99994.88;;;44.80;17.99
61742;BME280;47650;49.848;9.620;2023-08-21T12:49:58;99988.78;;;45.13;17.44
61742;BME280;47650;49.848;9.620;2023-08-21T12:52:24;99975.03;;;47.18;16.37
61742;BME280;47650;49.848;9.620;2023-08-21T12:54:49;99983.34;;;47.93;16.49
61742;BME280;47650;49.848;9.620;2023-08-21T12:57:14;99968.75;;;49.53;15.04
61742;BME280;47650;49.848;9.620;2023-08-21T12:59:50;99977.25;;;47.36;16.83
61742;BME280;47650;49.848;9.620;2023-08-21T13:02:16;99976.81;;;48.34;17.03
61742;BME280;47650;49.848;9.620;2023-08-21T13:04:41;99964.72;;;49.54;15.14